createdAt,value
2022-11-16T00:02:44.330Z,99491.22
2022-11-16T00:06:46.432Z,99481.84
2022-11-16T00:10:47.925Z,99495.41
2022-11-16T00:14:49.501Z,99495.50
2022-11-16T00:18:59.633Z,99486.56
2022-11-16T00:23:01.213Z,99480.63
2022-11-16T00:27:02.972Z,99480.09
2022-11-16T00:31:07.196Z,99491.50
2022-11-16T00:35:08.807Z,99482.16
2022-11-16T00:39:12.882Z,99470.84
2022-11-16T00:43:14.406Z,99463.88
2022-11-16T00:47:15.966Z,99463.63
2022-11-16T00:51:17.539Z,99455.13
2022-11-16T00:55:19.098Z,99448.31
2022-11-16T00:59:21.354Z,99446.94
2022-11-16T01:03:28.943Z,99444.38
2022-11-16T01:07:30.484Z,99444.50
2022-11-16T01:11:50.812Z,99441.00
2022-11-16T01:15:52.828Z,99427.41
2022-11-16T01:19:54.321Z,99429.97
2022-11-16T01:23:57.172Z,99413.28
2022-11-16T01:27:58.738Z,99427.25
2022-11-16T01:32:12.133Z,99414.81
2022-11-16T01:36:15.196Z,99412.75
2022-11-16T01:40:48.565Z,99413.41
2022-11-16T01:45:44.167Z,99394.81
2022-11-16T01:55:48.623Z,99379.25
2022-11-16T02:00:00.698Z,99362.78
2022-11-16T02:04:15.823Z,99370.44
2022-11-16T02:09:22.263Z,99363.09
2022-11-16T02:13:39.629Z,99365.66
2022-11-16T02:18:08.163Z,99366.47
2022-11-16T02:22:54.704Z,99358.78
2022-11-16T02:27:37.052Z,99356.63
2022-11-16T02:32:17.114Z,99355.78
2022-11-16T02:36:23.455Z,99345.50
2022-11-16T02:40:30.648Z,99353.72
2022-11-16T02:44:35.988Z,99328.94
2022-11-16T02:48:42.720Z,99313.50
2022-11-16T02:52:44.653Z,99313.38
2022-11-16T02:57:05.097Z,99302.47
2022-11-16T03:01:15.112Z,99306.16
2022-11-16T03:05:33.059Z,99313.31
2022-11-16T03:09:41.597Z,99315.38
2022-11-16T03:13:44.794Z,99312.09
2022-11-16T03:17:50.076Z,99314.41
2022-11-16T03:21:58.017Z,99297.22
2022-11-16T03:26:05.166Z,99303.28
2022-11-16T03:30:15.180Z,99294.03
2022-11-16T03:34:22.688Z,99300.63
2022-11-16T03:38:27.112Z,99315.16
2022-11-16T03:42:29.596Z,99309.09
2022-11-16T03:46:31.986Z,99293.66
2022-11-16T03:50:33.936Z,99299.00
2022-11-16T03:54:36.598Z,99295.25
2022-11-16T03:58:38.114Z,99289.31
2022-11-16T04:02:39.834Z,99311.28
2022-11-16T04:07:01.302Z,99306.47
2022-11-16T04:11:22.662Z,99281.16
2022-11-16T04:15:43.645Z,99294.59
2022-11-16T04:20:03.710Z,99279.69
2022-11-16T04:24:14.996Z,99301.44
2022-11-16T04:28:21.712Z,99304.63
2022-11-16T04:32:45.765Z,99286.66
2022-11-16T04:37:06.312Z,99300.25
2022-11-16T04:41:28.048Z,99285.03
2022-11-16T04:45:49.595Z,99278.44
2022-11-16T04:49:53.381Z,99268.91
2022-11-16T04:53:56.165Z,99258.81
2022-11-16T04:57:57.752Z,99261.53
2022-11-16T05:02:09.957Z,99269.38
2022-11-16T05:06:25.720Z,99269.28
2022-11-16T05:10:28.008Z,99277.97
2022-11-16T05:14:30.230Z,99293.22
2022-11-16T05:18:33.252Z,99275.13
2022-11-16T05:22:35.592Z,99280.56
2022-11-16T05:26:38.622Z,99296.38
2022-11-16T05:30:40.221Z,99290.78
2022-11-16T05:40:41.485Z,99302.28
2022-11-16T05:44:43.233Z,99310.78
2022-11-16T05:48:45.191Z,99297.47
2022-11-16T05:52:47.643Z,99287.84
2022-11-16T05:56:50.702Z,99299.19
2022-11-16T06:00:54.387Z,99290.09
2022-11-16T06:04:57.078Z,99289.66
2022-11-16T06:08:58.652Z,99298.31
2022-11-16T06:13:01.854Z,99292.50
2022-11-16T06:17:03.960Z,99292.28
2022-11-16T06:21:07.080Z,99306.59
2022-11-16T06:25:10.797Z,99308.84
2022-11-16T06:29:16.140Z,99309.63
2022-11-16T06:33:18.132Z,99296.41
2022-11-16T06:37:19.879Z,99303.31
2022-11-16T06:41:21.760Z,99305.19
2022-11-16T06:45:26.216Z,99314.50
2022-11-16T06:49:30.752Z,99298.50
2022-11-16T06:53:36.306Z,99294.91
2022-11-16T06:57:38.771Z,99292.06
2022-11-16T07:01:40.821Z,99282.81
2022-11-16T07:05:46.631Z,99287.31
2022-11-16T07:09:51.304Z,99295.84
2022-11-16T07:13:53.878Z,99289.03
2022-11-16T07:17:55.755Z,99295.84
2022-11-16T07:21:57.553Z,99291.13
2022-11-16T07:26:00.820Z,99300.38
2022-11-16T07:30:11.393Z,99302.56
2022-11-16T07:34:16.337Z,99300.78
2022-11-16T07:38:38.989Z,99300.94
2022-11-16T07:42:41.940Z,99295.34
2022-11-16T07:47:01.757Z,99287.94
2022-11-16T07:51:12.436Z,99290.31
2022-11-16T07:55:37.564Z,99292.84
2022-11-16T07:59:41.790Z,99292.97
2022-11-16T08:03:45.503Z,99282.25
2022-11-16T08:08:14.261Z,99281.84
2022-11-16T08:12:17.595Z,99264.88
2022-11-16T08:16:21.304Z,99265.00
2022-11-16T08:20:26.240Z,99259.28
2022-11-16T08:24:29.552Z,99255.91
2022-11-16T08:28:59.121Z,99261.09
2022-11-16T08:33:31.052Z,99261.50
2022-11-16T08:37:34.172Z,99263.31
2022-11-16T08:41:44.306Z,99261.84
2022-11-16T08:45:49.903Z,99246.69
2022-11-16T08:50:22.990Z,99250.13
2022-11-16T08:54:32.802Z,99248.75
2022-11-16T08:59:02.043Z,99248.94
2022-11-16T09:03:03.935Z,99254.19
2022-11-16T09:07:34.655Z,99246.03
2022-11-16T09:11:36.880Z,99260.31
2022-11-16T09:21:06.680Z,99257.38
2022-11-16T09:25:09.870Z,99264.31
2022-11-16T09:29:13.654Z,99256.38
2022-11-16T09:33:15.317Z,99258.56
2022-11-16T09:37:17.017Z,99252.44
2022-11-16T09:41:53.507Z,99251.38
2022-11-16T09:46:19.547Z,99242.25
2022-11-16T09:50:32.716Z,99249.69
2022-11-16T09:55:03.318Z,99238.75
2022-11-16T09:59:16.675Z,99232.91
2022-11-16T10:03:19.733Z,99233.34
2022-11-16T10:07:41.783Z,99232.53
2022-11-16T10:11:52.808Z,99228.69
2022-11-16T10:16:13.541Z,99222.28
2022-11-16T10:20:38.789Z,99218.13
2022-11-16T10:24:53.759Z,99205.31
2022-11-16T10:29:19.289Z,99203.13
2022-11-16T10:33:22.779Z,99200.75
2022-11-16T10:37:30.312Z,99190.66
2022-11-16T10:41:38.165Z,99184.63
2022-11-16T10:45:42.880Z,99183.56
2022-11-16T10:50:04.294Z,99175.22
2022-11-16T10:54:13.893Z,99176.22
2022-11-16T10:58:16.074Z,99182.38
2022-11-16T11:02:35.486Z,99172.38
2022-11-16T11:06:40.165Z,99171.38
2022-11-16T11:10:42.333Z,99166.78
2022-11-16T11:15:11.713Z,99171.41
2022-11-16T11:19:26.194Z,99169.97
2022-11-16T11:23:54.399Z,99160.44
2022-11-16T11:28:15.003Z,99161.75
2022-11-16T11:32:23.783Z,99155.03
2022-11-16T11:36:40.478Z,99151.66
2022-11-16T11:40:57.932Z,99151.09
2022-11-16T11:45:06.630Z,99152.25
2022-11-16T11:49:19.404Z,99157.50
2022-11-16T11:53:43.534Z,99143.28
2022-11-16T11:57:47.923Z,99150.75
2022-11-16T12:02:04.963Z,99147.38
2022-11-16T12:06:11.245Z,99144.72
2022-11-16T12:10:29.091Z,99149.53
2022-11-16T12:14:58.368Z,99143.88
2022-11-16T12:19:16.763Z,99152.69
2022-11-16T12:24:10.371Z,99152.56
2022-11-16T12:28:30.507Z,99145.19
2022-11-16T12:32:47.799Z,99143.75
2022-11-16T12:37:03.768Z,99136.88
2022-11-16T12:41:26.618Z,99139.41
2022-11-16T12:45:52.837Z,99145.44
2022-11-16T12:50:15.814Z,99139.19
2022-11-16T12:54:36.332Z,99145.44
2022-11-16T12:58:43.780Z,99133.38
2022-11-16T13:03:00.041Z,99128.06
2022-11-16T13:07:10.425Z,99131.22
2022-11-16T13:11:22.764Z,99131.22
2022-11-16T13:15:34.775Z,99123.75
2022-11-16T13:19:44.172Z,99122.63
2022-11-16T13:24:20.101Z,99136.41
2022-11-16T13:28:37.149Z,99129.50
2022-11-16T13:33:03.740Z,99130.13
2022-11-16T13:37:36.442Z,99134.06
2022-11-16T13:41:40.490Z,99129.72
2022-11-16T13:45:55.945Z,99128.06
2022-11-16T13:50:00.182Z,99127.88
2022-11-16T13:58:35.464Z,99122.22
2022-11-16T14:02:43.430Z,99128.66
2022-11-16T14:06:55.407Z,99128.63
2022-11-16T14:11:02.852Z,99122.06
2022-11-16T14:15:15.867Z,99124.81
2022-11-16T14:19:51.889Z,99122.28
2022-11-16T14:24:21.390Z,99119.38
2022-11-16T14:28:47.192Z,99114.78
2022-11-16T14:32:54.742Z,99112.22
2022-11-16T14:36:58.282Z,99112.84
2022-11-16T14:41:06.479Z,99112.44
2022-11-16T14:45:22.651Z,99114.47
2022-11-16T14:49:25.988Z,99117.56
2022-11-16T14:53:29.278Z,99102.63
2022-11-16T14:57:31.096Z,99108.72
2022-11-16T15:01:39.720Z,99109.81
2022-11-16T15:05:41.415Z,99105.34
2022-11-16T15:10:01.363Z,99109.50
2022-11-16T15:14:02.970Z,99100.88
2022-11-16T15:18:07.273Z,99105.75
2022-11-16T15:22:16.883Z,99094.91
2022-11-16T15:26:21.479Z,99092.97
2022-11-16T15:30:25.874Z,99093.00
2022-11-16T15:34:27.746Z,99092.69
2022-11-16T15:38:35.323Z,99089.84
2022-11-16T15:42:39.309Z,99091.03
2022-11-16T15:46:42.912Z,99091.88
2022-11-16T15:51:05.059Z,99089.66
2022-11-16T15:55:20.790Z,99085.41
2022-11-16T15:59:28.278Z,99091.44
2022-11-16T16:03:35.012Z,99090.06
2022-11-16T16:07:41.445Z,99089.22
2022-11-16T16:11:42.950Z,99088.59
2022-11-16T16:15:44.519Z,99089.66
2022-11-16T16:20:06.310Z,99085.50
2022-11-16T16:24:11.666Z,99095.13
2022-11-16T16:28:15.589Z,99086.03
2022-11-16T16:32:29.370Z,99078.25
2022-11-16T16:36:31.207Z,99083.81
2022-11-16T16:40:32.794Z,99086.28
2022-11-16T16:44:34.615Z,99078.66
2022-11-16T16:48:39.098Z,99084.13
2022-11-16T16:52:45.514Z,99083.50
2022-11-16T16:56:47.526Z,99084.25
2022-11-16T17:00:49.307Z,99086.69
2022-11-16T17:04:51.244Z,99082.56
2022-11-16T17:08:53.208Z,99081.41
2022-11-16T17:12:57.846Z,99084.38
2022-11-16T17:17:02.135Z,99080.88
2022-11-16T17:21:05.622Z,99086.69
2022-11-16T17:25:10.512Z,99089.03
2022-11-16T17:29:17.566Z,99084.78
2022-11-16T17:33:19.122Z,99085.81
2022-11-16T17:37:20.695Z,99079.50
2022-11-16T17:41:26.127Z,99074.31
2022-11-16T17:45:27.654Z,99074.59
2022-11-16T17:49:32.774Z,99082.66
2022-11-16T17:53:36.042Z,99089.00
2022-11-16T17:57:38.175Z,99078.41
2022-11-16T18:01:39.856Z,99087.72
2022-11-16T18:05:41.623Z,99084.13
2022-11-16T18:09:43.124Z,99083.59
2022-11-16T18:13:45.218Z,99082.44
2022-11-16T18:17:46.953Z,99089.00
2022-11-16T18:21:48.937Z,99089.41
2022-11-16T18:25:53.939Z,99088.19
2022-11-16T18:29:55.603Z,99086.69
2022-11-16T18:33:57.213Z,99091.66
2022-11-16T18:37:58.718Z,99090.50
2022-11-16T18:42:00.489Z,99092.59
2022-11-16T18:46:02.065Z,99092.72
2022-11-16T18:50:16.352Z,99084.16
2022-11-16T18:54:20.696Z,99078.53
2022-11-16T18:58:48.859Z,99083.16
2022-11-16T19:02:44.696Z,99089.00
2022-11-16T19:06:46.564Z,99073.47
2022-11-16T19:10:48.112Z,99075.69
2022-11-16T19:14:49.642Z,99079.06
2022-11-16T19:18:51.566Z,99075.47
2022-11-16T19:22:53.337Z,99075.25
2022-11-16T19:26:54.878Z,99078.00
2022-11-16T19:30:56.536Z,99084.00
2022-11-16T19:34:58.253Z,99072.94
2022-11-16T19:38:59.882Z,99081.09
2022-11-16T19:43:01.513Z,99084.03
2022-11-16T19:47:03.105Z,99089.84
2022-11-16T19:51:10.562Z,99081.16
2022-11-16T19:55:12.166Z,99079.34
2022-11-16T19:59:14.020Z,99080.41
2022-11-16T20:03:15.589Z,99080.03
2022-11-16T20:07:18.027Z,99081.00
2022-11-16T20:11:22.077Z,99083.09
2022-11-16T20:15:25.406Z,99077.81
2022-11-16T20:19:27.254Z,99071.13
2022-11-16T20:23:29.155Z,99079.69
2022-11-16T20:27:33.397Z,99069.72
2022-11-16T20:31:34.937Z,99065.59
2022-11-16T20:35:36.486Z,99055.91
2022-11-16T20:39:38.025Z,99053.56
2022-11-16T20:43:40.559Z,99060.28
2022-11-16T20:47:42.089Z,99063.16
2022-11-16T20:51:46.058Z,99066.06
2022-11-16T20:55:49.118Z,99072.88
2022-11-16T20:59:50.655Z,99070.78
2022-11-16T21:03:54.949Z,99067.66
2022-11-16T21:07:59.430Z,99073.31
2022-11-16T21:12:19.620Z,99080.38
2022-11-16T21:16:21.322Z,99074.84
2022-11-16T21:20:27.920Z,99075.09
2022-11-16T21:24:32.021Z,99066.63
2022-11-16T21:28:34.132Z,99075.94
2022-11-16T21:32:35.698Z,99084.56
2022-11-16T21:36:37.421Z,99084.41
2022-11-16T21:40:41.403Z,99088.47
2022-11-16T21:45:16.648Z,99087.66
2022-11-16T21:49:16.870Z,99095.75
2022-11-16T21:53:18.734Z,99101.50
2022-11-16T21:57:20.465Z,99098.41
2022-11-16T22:01:23.681Z,99084.72
2022-11-16T22:05:44.329Z,99085.50
2022-11-16T22:09:46.816Z,99089.28
2022-11-16T22:13:50.782Z,99089.47
2022-11-16T22:17:53.345Z,99085.50
2022-11-16T22:21:55.748Z,99091.72
2022-11-16T22:26:04.018Z,99097.00
2022-11-16T22:30:07.124Z,99096.06
2022-11-16T22:34:08.811Z,99096.06
2022-11-16T22:38:10.994Z,99094.34
2022-11-16T22:42:12.478Z,99085.81
2022-11-16T22:46:13.985Z,99092.22
2022-11-16T22:50:15.542Z,99086.28
2022-11-16T22:54:17.108Z,99085.72
2022-11-16T22:58:18.572Z,99081.59
2022-11-16T23:02:20.177Z,99083.69
2022-11-16T23:06:21.900Z,99086.66
2022-11-16T23:10:23.547Z,99084.03
2022-11-16T23:14:43.651Z,99082.53
2022-11-16T23:18:45.738Z,99069.00
2022-11-16T23:23:05.848Z,99073.69
2022-11-16T23:27:29.861Z,99065.03
2022-11-16T23:31:31.340Z,99058.63
2022-11-16T23:35:33.228Z,99070.31
2022-11-16T23:39:34.774Z,99066.91
2022-11-16T23:43:54.747Z,99061.66
2022-11-16T23:47:56.373Z,99059.78
2022-11-16T23:51:58.208Z,99070.78
2022-11-16T23:56:05.743Z,99065.44
